sensor_id;sensor_type;location;lat;lon;timestamp;P1;durP1;ratioP1;P2;durP2;ratioP2
16033;SDS011;8121;51.418;6.998;2024-02-14T00:01:08;2.80;;;1.60;;
16033;SDS011;8121;51.418;6.998;2024-02-14T00:06:10;2.90;;;1.47;;
16033;SDS011;8121;51.418;6.998;2024-02-14T00:11:14;1.37;;;1.17;;
16033;SDS011;8121;51.418;6.998;2024-02-14T00:16:17;1.40;;;1.30;;
16033;SDS011;8121;51.418;6.998;2024-02-14T00:21:18;2.40;;;1.53;;
16033;SDS011;8121;51.418;6.998;2024-02-14T00:26:21;1.63;;;1.43;;
16033;SDS011;8121;51.418;6.998;2024-02-14T00:31:23;1.33;;;1.23;;
16033;SDS011;8121;51.418;6.998;2024-02-14T00:36:25;2.00;;;1.70;;
16033;SDS011;8121;51.418;6.998;2024-02-14T00:41:28;3.13;;;1.37;;
16033;SDS011;8121;51.418;6.998;2024-02-14T00:46:29;1.60;;;1.50;;
16033;SDS011;8121;51.418;6.998;2024-02-14T00:51:31;2.27;;;1.40;;
16033;SDS011;8121;51.418;6.998;2024-02-14T00:56:34;1.97;;;1.50;;
16033;SDS011;8121;51.418;6.998;2024-02-14T01:01:36;2.80;;;1.27;;
16033;SDS011;8121;51.418;6.998;2024-02-14T01:06:37;2.20;;;1.77;;
16033;SDS011;8121;51.418;6.998;2024-02-14T01:11:40;1.80;;;1.70;;
16033;SDS011;8121;51.418;6.998;2024-02-14T01:16:42;3.00;;;1.50;;
16033;SDS011;8121;51.418;6.998;2024-02-14T01:21:44;1.57;;;1.30;;
16033;SDS011;8121;51.418;6.998;2024-02-14T01:26:49;3.33;;;1.43;;
16033;SDS011;8121;51.418;6.998;2024-02-14T01:31:51;1.50;;;1.40;;
16033;SDS011;8121;51.418;6.998;2024-02-14T01:36:53;1.80;;;1.27;;
16033;SDS011;8121;51.418;6.998;2024-02-14T01:41:56;3.33;;;1.40;;
16033;SDS011;8121;51.418;6.998;2024-02-14T01:46:57;1.77;;;1.60;;
16033;SDS011;8121;51.418;6.998;2024-02-14T01:52:01;1.57;;;1.23;;
16033;SDS011;8121;51.418;6.998;2024-02-14T01:57:05;1.50;;;1.40;;
16033;SDS011;8121;51.418;6.998;2024-02-14T02:02:07;5.40;;;1.27;;
16033;SDS011;8121;51.418;6.998;2024-02-14T02:07:09;1.50;;;1.20;;
16033;SDS011;8121;51.418;6.998;2024-02-14T02:12:12;2.80;;;1.20;;
16033;SDS011;8121;51.418;6.998;2024-02-14T02:17:14;0.93;;;0.83;;
16033;SDS011;8121;51.418;6.998;2024-02-14T02:22:15;1.23;;;1.13;;
16033;SDS011;8121;51.418;6.998;2024-02-14T02:27:18;1.10;;;0.80;;
16033;SDS011;8121;51.418;6.998;2024-02-14T02:32:20;1.80;;;1.10;;
16033;SDS011;8121;51.418;6.998;2024-02-14T02:37:21;1.00;;;1.00;;
16033;SDS011;8121;51.418;6.998;2024-02-14T02:42:24;1.10;;;0.80;;
16033;SDS011;8121;51.418;6.998;2024-02-14T02:47:26;0.97;;;0.97;;
16033;SDS011;8121;51.418;6.998;2024-02-14T02:52:27;0.80;;;0.80;;
16033;SDS011;8121;51.418;6.998;2024-02-14T02:57:30;1.47;;;0.70;;
16033;SDS011;8121;51.418;6.998;2024-02-14T03:02:35;1.00;;;0.80;;
16033;SDS011;8121;51.418;6.998;2024-02-14T03:07:38;3.23;;;0.97;;
16033;SDS011;8121;51.418;6.998;2024-02-14T03:12:41;1.93;;;1.27;;
16033;SDS011;8121;51.418;6.998;2024-02-14T03:17:42;1.87;;;0.80;;
16033;SDS011;8121;51.418;6.998;2024-02-14T03:22:44;1.67;;;0.93;;
16033;SDS011;8121;51.418;6.998;2024-02-14T03:27:47;1.63;;;0.80;;
16033;SDS011;8121;51.418;6.998;2024-02-14T03:32:52;2.70;;;1.07;;
16033;SDS011;8121;51.418;6.998;2024-02-14T03:37:55;0.80;;;0.80;;
16033;SDS011;8121;51.418;6.998;2024-02-14T03:42:58;1.00;;;0.90;;
16033;SDS011;8121;51.418;6.998;2024-02-14T03:48:00;1.43;;;0.70;;
16033;SDS011;8121;51.418;6.998;2024-02-14T03:53:01;1.13;;;1.03;;
16033;SDS011;8121;51.418;6.998;2024-02-14T03:58:05;1.57;;;1.20;;
16033;SDS011;8121;51.418;6.998;2024-02-14T04:03:08;2.30;;;1.10;;
16033;SDS011;8121;51.418;6.998;2024-02-14T04:08:12;0.70;;;0.70;;
16033;SDS011;8121;51.418;6.998;2024-02-14T04:13:15;1.07;;;0.90;;
16033;SDS011;8121;51.418;6.998;2024-02-14T04:18:17;3.60;;;1.20;;
16033;SDS011;8121;51.418;6.998;2024-02-14T04:23:19;0.70;;;0.67;;
16033;SDS011;8121;51.418;6.998;2024-02-14T04:28:22;1.23;;;0.90;;
16033;SDS011;8121;51.418;6.998;2024-02-14T04:33:24;1.87;;;1.30;;
16033;SDS011;8121;51.418;6.998;2024-02-14T04:38:25;1.33;;;0.90;;
16033;SDS011;8121;51.418;6.998;2024-02-14T04:43:30;1.20;;;0.80;;
16033;SDS011;8121;51.418;6.998;2024-02-14T04:48:31;1.10;;;1.00;;
16033;SDS011;8121;51.418;6.998;2024-02-14T04:53:33;1.33;;;1.13;;
16033;SDS011;8121;51.418;6.998;2024-02-14T04:58:36;1.53;;;1.43;;
16033;SDS011;8121;51.418;6.998;2024-02-14T05:03:38;1.70;;;1.03;;
16033;SDS011;8121;51.418;6.998;2024-02-14T05:08:39;1.17;;;1.07;;
16033;SDS011;8121;51.418;6.998;2024-02-14T05:13:43;1.20;;;1.10;;
16033;SDS011;8121;51.418;6.998;2024-02-14T05:18:44;2.77;;;1.23;;
16033;SDS011;8121;51.418;6.998;2024-02-14T05:23:46;2.53;;;1.20;;
16033;SDS011;8121;51.418;6.998;2024-02-14T05:28:49;1.70;;;1.60;;
16033;SDS011;8121;51.418;6.998;2024-02-14T05:33:51;1.80;;;1.23;;
16033;SDS011;8121;51.418;6.998;2024-02-14T05:38:53;1.20;;;1.10;;
16033;SDS011;8121;51.418;6.998;2024-02-14T05:43:55;1.13;;;1.07;;
16033;SDS011;8121;51.418;6.998;2024-02-14T05:48:57;3.63;;;1.77;;
16033;SDS011;8121;51.418;6.998;2024-02-14T05:53:58;2.37;;;1.30;;
16033;SDS011;8121;51.418;6.998;2024-02-14T05:59:01;5.47;;;1.77;;
16033;SDS011;8121;51.418;6.998;2024-02-14T06:04:03;1.43;;;1.30;;
16033;SDS011;8121;51.418;6.998;2024-02-14T06:09:05;1.30;;;1.20;;
16033;SDS011;8121;51.418;6.998;2024-02-14T06:14:11;1.53;;;1.30;;
16033;SDS011;8121;51.418;6.998;2024-02-14T06:19:14;2.43;;;1.77;;
16033;SDS011;8121;51.418;6.998;2024-02-14T06:24:15;1.30;;;1.20;;
16033;SDS011;8121;51.418;6.998;2024-02-14T06:29:20;1.60;;;1.50;;
16033;SDS011;8121;51.418;6.998;2024-02-14T06:34:22;1.83;;;1.73;;
16033;SDS011;8121;51.418;6.998;2024-02-14T06:39:24;2.20;;;1.57;;
16033;SDS011;8121;51.418;6.998;2024-02-14T06:44:27;3.27;;;1.43;;
16033;SDS011;8121;51.418;6.998;2024-02-14T06:54:08;1.77;;;1.63;;
16033;SDS011;8121;51.418;6.998;2024-02-14T06:59:10;2.27;;;2.17;;
16033;SDS011;8121;51.418;6.998;2024-02-14T07:04:12;1.37;;;1.27;;
16033;SDS011;8121;51.418;6.998;2024-02-14T07:09:15;1.73;;;1.63;;
16033;SDS011;8121;51.418;6.998;2024-02-14T07:14:16;1.20;;;1.13;;
16033;SDS011;8121;51.418;6.998;2024-02-14T07:19:18;1.70;;;1.60;;
16033;SDS011;8121;51.418;6.998;2024-02-14T07:24:21;4.70;;;1.60;;
16033;SDS011;8121;51.418;6.998;2024-02-14T07:29:23;1.67;;;1.57;;
16033;SDS011;8121;51.418;6.998;2024-02-14T07:34:25;2.53;;;2.27;;
16033;SDS011;8121;51.418;6.998;2024-02-14T07:39:28;9.63;;;2.70;;
16033;SDS011;8121;51.418;6.998;2024-02-14T07:44:30;2.77;;;1.53;;
16033;SDS011;8121;51.418;6.998;2024-02-14T07:49:32;2.23;;;1.60;;
16033;SDS011;8121;51.418;6.998;2024-02-14T07:54:35;1.67;;;1.57;;
16033;SDS011;8121;51.418;6.998;2024-02-14T07:59:37;2.33;;;1.57;;
16033;SDS011;8121;51.418;6.998;2024-02-14T08:04:38;2.60;;;1.90;;
16033;SDS011;8121;51.418;6.998;2024-02-14T08:09:41;2.20;;;1.70;;
16033;SDS011;8121;51.418;6.998;2024-02-14T08:14:43;4.23;;;1.33;;
16033;SDS011;8121;51.418;6.998;2024-02-14T08:19:44;2.93;;;1.10;;
16033;SDS011;8121;51.418;6.998;2024-02-14T08:24:47;1.33;;;1.17;;
16033;SDS011;8121;51.418;6.998;2024-02-14T08:29:49;1.47;;;1.37;;
16033;SDS011;8121;51.418;6.998;2024-02-14T08:34:51;3.17;;;1.50;;
16033;SDS011;8121;51.418;6.998;2024-02-14T08:39:54;3.40;;;1.30;;
16033;SDS011;8121;51.418;6.998;2024-02-14T08:44:55;1.70;;;1.07;;
16033;SDS011;8121;51.418;6.998;2024-02-14T08:49:57;1.77;;;1.40;;
16033;SDS011;8121;51.418;6.998;2024-02-14T08:54:59;1.50;;;1.30;;
16033;SDS011;8121;51.418;6.998;2024-02-14T09:00:01;1.77;;;1.23;;
16033;SDS011;8121;51.418;6.998;2024-02-14T09:05:04;3.87;;;1.47;;
16033;SDS011;8121;51.418;6.998;2024-02-14T09:10:07;1.20;;;1.10;;
16033;SDS011;8121;51.418;6.998;2024-02-14T09:15:10;2.10;;;1.60;;
16033;SDS011;8121;51.418;6.998;2024-02-14T09:20:12;4.93;;;1.17;;
16033;SDS011;8121;51.418;6.998;2024-02-14T09:25:16;2.23;;;1.00;;
16033;SDS011;8121;51.418;6.998;2024-02-14T09:30:18;2.57;;;1.27;;
16033;SDS011;8121;51.418;6.998;2024-02-14T09:35:19;3.03;;;1.27;;
16033;SDS011;8121;51.418;6.998;2024-02-14T09:40:22;1.53;;;1.43;;
16033;SDS011;8121;51.418;6.998;2024-02-14T09:45:25;6.90;;;2.30;;
16033;SDS011;8121;51.418;6.998;2024-02-14T09:50:27;1.50;;;1.00;;
16033;SDS011;8121;51.418;6.998;2024-02-14T09:55:32;3.33;;;1.37;;
16033;SDS011;8121;51.418;6.998;2024-02-14T10:00:34;2.93;;;1.40;;
16033;SDS011;8121;51.418;6.998;2024-02-14T10:05:36;6.30;;;1.47;;
16033;SDS011;8121;51.418;6.998;2024-02-14T10:10:39;1.30;;;1.20;;
16033;SDS011;8121;51.418;6.998;2024-02-14T10:15:41;1.70;;;1.60;;
16033;SDS011;8121;51.418;6.998;2024-02-14T10:20:52;7.20;;;1.90;;
16033;SDS011;8121;51.418;6.998;2024-02-14T10:26:01;1.57;;;1.13;;
16033;SDS011;8121;51.418;6.998;2024-02-14T10:31:05;1.53;;;1.43;;
16033;SDS011;8121;51.418;6.998;2024-02-14T10:36:08;1.43;;;1.00;;
16033;SDS011;8121;51.418;6.998;2024-02-14T10:41:11;1.20;;;1.10;;
16033;SDS011;8121;51.418;6.998;2024-02-14T10:46:15;1.50;;;1.10;;
16033;SDS011;8121;51.418;6.998;2024-02-14T10:51:21;3.00;;;1.17;;
16033;SDS011;8121;51.418;6.998;2024-02-14T10:56:25;4.30;;;1.50;;
16033;SDS011;8121;51.418;6.998;2024-02-14T11:01:29;1.83;;;0.90;;
16033;SDS011;8121;51.418;6.998;2024-02-14T11:06:31;2.10;;;1.07;;
16033;SDS011;8121;51.418;6.998;2024-02-14T11:11:35;1.50;;;1.40;;
16033;SDS011;8121;51.418;6.998;2024-02-14T11:16:37;2.00;;;0.83;;
16033;SDS011;8121;51.418;6.998;2024-02-14T11:21:39;2.63;;;1.03;;
16033;SDS011;8121;51.418;6.998;2024-02-14T11:26:50;1.23;;;0.90;;
16033;SDS011;8121;51.418;6.998;2024-02-14T11:31:57;3.17;;;1.17;;
16033;SDS011;8121;51.418;6.998;2024-02-14T11:36:59;2.03;;;1.73;;
16033;SDS011;8121;51.418;6.998;2024-02-14T11:42:02;1.50;;;1.10;;
16033;SDS011;8121;51.418;6.998;2024-02-14T11:47:04;2.23;;;1.50;;
16033;SDS011;8121;51.418;6.998;2024-02-14T11:52:09;3.90;;;1.10;;
16033;SDS011;8121;51.418;6.998;2024-02-14T11:57:12;3.63;;;1.23;;
16033;SDS011;8121;51.418;6.998;2024-02-14T12:02:14;2.57;;;1.10;;
16033;SDS011;8121;51.418;6.998;2024-02-14T12:07:16;1.33;;;1.10;;
16033;SDS011;8121;51.418;6.998;2024-02-14T12:12:19;2.33;;;0.93;;
16033;SDS011;8121;51.418;6.998;2024-02-14T12:17:23;1.30;;;0.83;;
16033;SDS011;8121;51.418;6.998;2024-02-14T12:22:24;1.00;;;0.90;;
16033;SDS011;8121;51.418;6.998;2024-02-14T12:27:31;1.67;;;0.80;;
16033;SDS011;8121;51.418;6.998;2024-02-14T12:32:33;1.57;;;0.83;;
16033;SDS011;8121;51.418;6.998;2024-02-14T12:37:34;4.43;;;0.70;;
16033;SDS011;8121;51.418;6.998;2024-02-14T12:42:37;1.03;;;0.87;;
16033;SDS011;8121;51.418;6.998;2024-02-14T12:47:39;1.30;;;0.83;;
16033;SDS011;8121;51.418;6.998;2024-02-14T12:52:43;1.67;;;0.67;;
16033;SDS011;8121;51.418;6.998;2024-02-14T12:57:46;0.90;;;0.80;;
16033;SDS011;8121;51.418;6.998;2024-02-14T13:02:47;0.80;;;0.70;;
16033;SDS011;8121;51.418;6.998;2024-02-14T13:07:49;3.73;;;1.00;;
16033;SDS011;8121;51.418;6.998;2024-02-14T13:12:52;1.30;;;0.93;;
16033;SDS011;8121;51.418;6.998;2024-02-14T13:17:54;4.37;;;1.17;;
16033;SDS011;8121;51.418;6.998;2024-02-14T13:22:56;2.70;;;0.73;;
16033;SDS011;8121;51.418;6.998;2024-02-14T13:27:59;1.17;;;0.80;;
16033;SDS011;8121;51.418;6.998;2024-02-14T13:33:01;0.73;;;0.73;;
16033;SDS011;8121;51.418;6.998;2024-02-14T13:38:03;2.60;;;1.10;;
16033;SDS011;8121;51.418;6.998;2024-02-14T13:43:06;1.27;;;1.17;;
16033;SDS011;8121;51.418;6.998;2024-02-14T13:48:08;1.97;;;1.20;;
16033;SDS011;8121;51.418;6.998;2024-02-14T13:53:10;2.20;;;0.80;;
16033;SDS011;8121;51.418;6.998;2024-02-14T13:58:13;1.93;;;1.00;;
16033;SDS011;8121;51.418;6.998;2024-02-14T14:03:16;0.97;;;0.80;;
16033;SDS011;8121;51.418;6.998;2024-02-14T14:08:18;0.80;;;0.73;;
16033;SDS011;8121;51.418;6.998;2024-02-14T14:13:21;2.10;;;1.00;;
16033;SDS011;8121;51.418;6.998;2024-02-14T14:18:22;1.20;;;0.80;;
16033;SDS011;8121;51.418;6.998;2024-02-14T14:23:24;2.47;;;0.80;;
16033;SDS011;8121;51.418;6.998;2024-02-14T14:28:27;1.73;;;0.83;;
16033;SDS011;8121;51.418;6.998;2024-02-14T14:33:28;1.87;;;0.93;;
16033;SDS011;8121;51.418;6.998;2024-02-14T14:38:30;0.60;;;0.57;;
16033;SDS011;8121;51.418;6.998;2024-02-14T14:43:33;1.10;;;0.90;;
16033;SDS011;8121;51.418;6.998;2024-02-14T14:48:34;1.33;;;1.00;;
16033;SDS011;8121;51.418;6.998;2024-02-14T14:53:36;3.43;;;0.83;;
16033;SDS011;8121;51.418;6.998;2024-02-14T14:58:39;1.10;;;0.70;;
16033;SDS011;8121;51.418;6.998;2024-02-14T15:03:42;4.37;;;0.90;;
16033;SDS011;8121;51.418;6.998;2024-02-14T15:08:44;1.37;;;0.70;;
16033;SDS011;8121;51.418;6.998;2024-02-14T15:13:49;0.60;;;0.50;;
16033;SDS011;8121;51.418;6.998;2024-02-14T15:18:50;0.70;;;0.50;;
16033;SDS011;8121;51.418;6.998;2024-02-14T15:23:53;0.67;;;0.57;;
16033;SDS011;8121;51.418;6.998;2024-02-14T15:28:55;0.93;;;0.70;;
16033;SDS011;8121;51.418;6.998;2024-02-14T15:34:18;0.67;;;0.60;;
16033;SDS011;8121;51.418;6.998;2024-02-14T15:39:19;1.47;;;0.60;;
16033;SDS011;8121;51.418;6.998;2024-02-14T15:44:22;0.60;;;0.57;;
16033;SDS011;8121;51.418;6.998;2024-02-14T15:49:23;0.90;;;0.60;;
16033;SDS011;8121;51.418;6.998;2024-02-14T15:54:26;0.60;;;0.50;;
16033;SDS011;8121;51.418;6.998;2024-02-14T15:59:28;0.60;;;0.60;;
16033;SDS011;8121;51.418;6.998;2024-02-14T16:04:30;0.83;;;0.80;;
16033;SDS011;8121;51.418;6.998;2024-02-14T16:09:32;0.67;;;0.50;;
16033;SDS011;8121;51.418;6.998;2024-02-14T16:14:36;0.70;;;0.70;;
16033;SDS011;8121;51.418;6.998;2024-02-14T16:19:38;0.90;;;0.60;;
16033;SDS011;8121;51.418;6.998;2024-02-14T16:24:39;1.50;;;1.00;;
16033;SDS011;8121;51.418;6.998;2024-02-14T16:29:44;0.80;;;0.80;;
16033;SDS011;8121;51.418;6.998;2024-02-14T16:34:45;3.27;;;0.77;;
16033;SDS011;8121;51.418;6.998;2024-02-14T16:39:48;0.90;;;0.60;;
16033;SDS011;8121;51.418;6.998;2024-02-14T16:44:51;1.87;;;0.93;;
16033;SDS011;8121;51.418;6.998;2024-02-14T16:49:53;4.20;;;0.80;;
16033;SDS011;8121;51.418;6.998;2024-02-14T16:54:55;1.63;;;1.10;;
16033;SDS011;8121;51.418;6.998;2024-02-14T17:00:31;0.70;;;0.70;;
16033;SDS011;8121;51.418;6.998;2024-02-14T17:05:33;0.97;;;0.80;;
16033;SDS011;8121;51.418;6.998;2024-02-14T17:10:35;0.90;;;0.87;;
16033;SDS011;8121;51.418;6.998;2024-02-14T17:15:38;1.93;;;1.43;;
16033;SDS011;8121;51.418;6.998;2024-02-14T17:20:40;2.60;;;1.60;;
16033;SDS011;8121;51.418;6.998;2024-02-14T17:25:42;1.20;;;1.20;;
16033;SDS011;8121;51.418;6.998;2024-02-14T17:30:46;1.00;;;1.00;;
16033;SDS011;8121;51.418;6.998;2024-02-14T17:35:48;1.30;;;1.20;;
16033;SDS011;8121;51.418;6.998;2024-02-14T17:40:49;1.47;;;1.00;;
16033;SDS011;8121;51.418;6.998;2024-02-14T17:45:52;1.40;;;1.30;;
16033;SDS011;8121;51.418;6.998;2024-02-14T17:50:54;2.60;;;1.37;;
16033;SDS011;8121;51.418;6.998;2024-02-14T17:55:56;2.40;;;1.13;;
16033;SDS011;8121;51.418;6.998;2024-02-14T18:00:59;1.40;;;1.30;;
16033;SDS011;8121;51.418;6.998;2024-02-14T18:06:01;1.17;;;1.07;;
16033;SDS011;8121;51.418;6.998;2024-02-14T18:11:02;1.07;;;1.03;;
16033;SDS011;8121;51.418;6.998;2024-02-14T18:16:06;1.53;;;1.43;;
16033;SDS011;8121;51.418;6.998;2024-02-14T18:21:09;1.40;;;1.30;;
16033;SDS011;8121;51.418;6.998;2024-02-14T18:26:10;1.63;;;1.30;;
16033;SDS011;8121;51.418;6.998;2024-02-14T18:31:13;2.00;;;1.90;;
16033;SDS011;8121;51.418;6.998;2024-02-14T18:36:15;1.60;;;1.50;;
16033;SDS011;8121;51.418;6.998;2024-02-14T18:41:17;1.87;;;1.77;;
16033;SDS011;8121;51.418;6.998;2024-02-14T18:46:22;2.40;;;1.43;;
16033;SDS011;8121;51.418;6.998;2024-02-14T18:51:23;2.93;;;1.73;;
16033;SDS011;8121;51.418;6.998;2024-02-14T18:56:25;1.53;;;1.43;;
16033;SDS011;8121;51.418;6.998;2024-02-14T19:01:28;2.03;;;1.70;;
16033;SDS011;8121;51.418;6.998;2024-02-14T19:06:30;4.50;;;1.60;;
16033;SDS011;8121;51.418;6.998;2024-02-14T19:11:34;1.50;;;1.40;;
16033;SDS011;8121;51.418;6.998;2024-02-14T19:16:38;1.23;;;1.10;;
16033;SDS011;8121;51.418;6.998;2024-02-14T19:21:39;1.80;;;1.70;;
16033;SDS011;8121;51.418;6.998;2024-02-14T19:26:41;1.80;;;1.70;;
16033;SDS011;8121;51.418;6.998;2024-02-14T19:31:44;2.83;;;2.10;;
16033;SDS011;8121;51.418;6.998;2024-02-14T19:36:45;2.10;;;2.00;;
16033;SDS011;8121;51.418;6.998;2024-02-14T19:41:47;2.33;;;2.13;;
16033;SDS011;8121;51.418;6.998;2024-02-14T19:46:50;1.97;;;1.87;;
16033;SDS011;8121;51.418;6.998;2024-02-14T19:51:52;2.47;;;2.37;;
16033;SDS011;8121;51.418;6.998;2024-02-14T19:56:54;1.90;;;1.80;;
16033;SDS011;8121;51.418;6.998;2024-02-14T20:01:58;2.13;;;2.03;;
16033;SDS011;8121;51.418;6.998;2024-02-14T20:07:00;2.00;;;1.90;;
16033;SDS011;8121;51.418;6.998;2024-02-14T20:12:02;1.97;;;1.87;;
16033;SDS011;8121;51.418;6.998;2024-02-14T20:17:05;3.13;;;1.90;;
16033;SDS011;8121;51.418;6.998;2024-02-14T20:22:11;2.03;;;1.90;;
16033;SDS011;8121;51.418;6.998;2024-02-14T20:27:12;1.80;;;1.70;;
16033;SDS011;8121;51.418;6.998;2024-02-14T20:32:15;3.23;;;1.33;;
16033;SDS011;8121;51.418;6.998;2024-02-14T20:37:17;1.90;;;1.63;;
16033;SDS011;8121;51.418;6.998;2024-02-14T20:42:19;2.17;;;2.07;;
16033;SDS011;8121;51.418;6.998;2024-02-14T20:47:23;2.27;;;2.07;;
16033;SDS011;8121;51.418;6.998;2024-02-14T20:52:25;3.27;;;3.07;;
16033;SDS011;8121;51.418;6.998;2024-02-14T20:57:27;4.47;;;3.30;;
16033;SDS011;8121;51.418;6.998;2024-02-14T21:02:30;2.60;;;2.40;;
16033;SDS011;8121;51.418;6.998;2024-02-14T21:07:31;9.03;;;3.03;;
16033;SDS011;8121;51.418;6.998;2024-02-14T21:12:33;4.03;;;2.20;;
16033;SDS011;8121;51.418;6.998;2024-02-14T21:17:37;2.80;;;2.40;;
16033;SDS011;8121;51.418;6.998;2024-02-14T21:22:39;3.77;;;2.47;;
16033;SDS011;8121;51.418;6.998;2024-02-14T21:27:41;2.37;;;2.17;;
16033;SDS011;8121;51.418;6.998;2024-02-14T21:32:43;3.83;;;2.63;;
16033;SDS011;8121;51.418;6.998;2024-02-14T21:37:45;2.53;;;2.43;;
16033;SDS011;8121;51.418;6.998;2024-02-14T21:42:47;5.73;;;4.30;;
16033;SDS011;8121;51.418;6.998;2024-02-14T21:47:50;5.63;;;3.57;;
16033;SDS011;8121;51.418;6.998;2024-02-14T21:52:53;2.63;;;2.37;;
16033;SDS011;8121;51.418;6.998;2024-02-14T21:57:55;2.43;;;2.23;;
16033;SDS011;8121;51.418;6.998;2024-02-14T22:02:58;5.60;;;2.30;;
16033;SDS011;8121;51.418;6.998;2024-02-14T22:07:59;2.67;;;2.47;;
16033;SDS011;8121;51.418;6.998;2024-02-14T22:13:02;5.70;;;2.40;;
16033;SDS011;8121;51.418;6.998;2024-02-14T22:18:06;3.10;;;2.77;;
16033;SDS011;8121;51.418;6.998;2024-02-14T22:23:08;5.30;;;3.80;;
16033;SDS011;8121;51.418;6.998;2024-02-14T22:28:10;4.33;;;2.80;;
16033;SDS011;8121;51.418;6.998;2024-02-14T22:33:13;2.73;;;2.53;;
16033;SDS011;8121;51.418;6.998;2024-02-14T22:38:15;3.20;;;2.90;;
16033;SDS011;8121;51.418;6.998;2024-02-14T22:43:16;4.00;;;2.53;;
16033;SDS011;8121;51.418;6.998;2024-02-14T22:48:19;5.80;;;3.30;;
16033;SDS011;8121;51.418;6.998;2024-02-14T22:53:21;2.80;;;2.60;;
16033;SDS011;8121;51.418;6.998;2024-02-14T22:58:22;3.57;;;3.23;;
16033;SDS011;8121;51.418;6.998;2024-02-14T23:03:26;4.57;;;4.10;;
16033;SDS011;8121;51.418;6.998;2024-02-14T23:08:27;5.23;;;4.23;;
16033;SDS011;8121;51.418;6.998;2024-02-14T23:13:29;4.03;;;3.17;;
16033;SDS011;8121;51.418;6.998;2024-02-14T23:18:32;7.20;;;3.67;;
16033;SDS011;8121;51.418;6.998;2024-02-14T23:23:33;9.20;;;3.67;;
16033;SDS011;8121;51.418;6.998;2024-02-14T23:28:35;3.63;;;3.33;;
16033;SDS011;8121;51.418;6.998;2024-02-14T23:33:39;3.90;;;2.60;;
16033;SDS011;8121;51.418;6.998;2024-02-14T23:38:41;7.53;;;3.83;;
16033;SDS011;8121;51.418;6.998;2024-02-14T23:43:43;5.00;;;2.77;;
16033;SDS011;8121;51.418;6.998;2024-02-14T23:48:46;2.70;;;2.50;;
16033;SDS011;8121;51.418;6.998;2024-02-14T23:53:48;4.17;;;3.00;;
16033;SDS011;8121;51.418;6.998;2024-02-14T23:58:49;4.23;;;3.67;;
